Time;durP1;ratioP1;P1;durP2;ratioP2;P2;SDS_P1;SDS_P2;PMS_P1;PMS_P2;Temp;Humidity;BMP_temperature;BMP_pressure;BME280_temperature;BME280_humidity;BME280_pressure;Samples;Min_cycle;Max_cycle;Signal;HPM_P1;HPM_P2
2021/05/07 00:00:13;;;;;;;24.02;12.95;;;;;;;6.36;56.59;99180.32;1709931;84;21147;-74
2021/05/07 00:02:40;;;;;;;26.40;14.00;;;;;;;6.31;56.32;99183.22;1681628;84;21135;-74
2021/05/07 00:05:09;;;;;;;21.52;12.65;;;;;;;6.30;56.47;99188.58;1703142;84;21576;-74
2021/05/07 00:07:36;;;;;;;23.22;13.32;;;;;;;6.28;56.77;99186.50;1704340;83;21578;-74
2021/05/07 00:10:06;;;;;;;22.10;12.80;;;;;;;6.27;56.70;99188.30;1698706;84;21707;-73
2021/05/07 00:12:35;;;;;;;22.22;12.20;;;;;;;6.28;56.91;99182.11;1704691;84;21735;-74
2021/05/07 00:15:06;;;;;;;22.05;12.20;;;;;;;6.33;57.07;99181.80;1697894;84;21139;-74
2021/05/07 00:17:33;;;;;;;22.35;12.88;;;;;;;6.36;56.96;99182.47;1709581;84;21325;-74
2021/05/07 00:20:00;;;;;;;22.62;12.98;;;;;;;6.40;57.12;99182.64;1709832;84;21187;-74
2021/05/07 00:22:27;;;;;;;20.75;11.68;;;;;;;6.44;57.08;99180.67;1700816;84;21839;-74
2021/05/07 00:24:56;;;;;;;19.45;11.15;;;;;;;6.49;57.07;99177.77;1697058;84;21339;-73
2021/05/07 00:27:24;;;;;;;18.85;10.85;;;;;;;6.54;57.02;99180.95;1704320;83;21570;-74
2021/05/07 00:29:51;;;;;;;21.50;10.70;;;;;;;6.61;56.99;99176.14;1695720;84;21161;-74
2021/05/07 00:32:18;;;;;;;20.00;10.68;;;;;;;6.64;56.57;99172.86;1707144;84;21282;-73
2021/05/07 00:34:47;;;;;;;15.45;9.95;;;;;;;6.66;56.53;99166.19;1688383;84;21152;-74
2021/05/07 00:37:15;;;;;;;19.07;11.93;;;;;;;6.64;56.63;99154.47;1708525;84;21167;-73
2021/05/07 00:39:44;;;;;;;18.12;11.33;;;;;;;6.60;56.66;99149.05;1709626;84;21774;-74
2021/05/07 00:42:12;;;;;;;16.75;11.00;;;;;;;6.57;57.07;99151.84;1708615;84;21310;-74
2021/05/07 00:44:42;;;;;;;17.73;10.32;;;;;;;6.57;57.07;99146.59;1708751;84;21136;-74
2021/05/07 00:47:11;;;;;;;17.10;10.68;;;;;;;6.58;56.96;99143.03;1703775;84;21704;-73
2021/05/07 00:49:39;;;;;;;18.40;10.40;;;;;;;6.58;56.69;99141.72;1705514;84;21595;-74
2021/05/07 00:52:08;;;;;;;14.30;9.80;;;;;;;6.58;56.33;99139.09;1696911;83;21597;-74
2021/05/07 00:54:39;;;;;;;15.78;9.48;;;;;;;6.56;56.37;99154.13;1705600;83;21214;-74
2021/05/07 00:57:08;;;;;;;15.53;9.45;;;;;;;6.52;55.67;99149.98;1707989;83;21159;-73
2021/05/07 00:59:35;;;;;;;13.85;9.38;;;;;;;6.50;55.47;99151.88;1690232;84;21596;-74
2021/05/07 01:05:05;;;;;;;27.62;12.00;;;;;;;6.52;55.37;99149.98;1798867;78;23159;-72
2021/05/07 01:07:33;;;;;;;23.07;11.20;;;;;;;6.46;55.35;99155.62;1748826;80;22245;-72
2021/05/07 01:10:01;;;;;;;20.90;10.85;;;;;;;6.42;56.06;99154.99;1771878;80;21248;-72
2021/05/07 01:12:30;;;;;;;21.77;10.90;;;;;;;6.38;55.88;99150.84;1764924;81;21816;-72
2021/05/07 01:15:17;;;;;;;24.50;11.30;;;;;;;6.33;55.95;99155.09;1729606;81;21166;-72
2021/05/07 01:17:48;;;;;;;26.07;12.50;;;;;;;6.28;55.91;99147.97;1747524;81;21337;-73
2021/05/07 01:20:22;;;;;;;23.67;11.28;;;;;;;6.24;56.25;99151.73;1724224;80;21204;-73
2021/05/07 01:22:58;;;;;;;21.17;10.45;;;;;;;6.24;55.79;99151.73;1756436;81;21324;-73
2021/05/07 01:25:38;;;;;;;25.77;12.28;;;;;;;6.22;55.45;99149.17;1743425;81;21161;-73
2021/05/07 01:28:11;;;;;;;27.80;14.50;;;;;;;6.20;55.60;99148.45;1754070;80;21603;-73
2021/05/07 01:30:42;;;;;;;30.90;16.45;;;;;;;6.20;55.48;99143.64;1749301;81;21208;-73
2021/05/07 01:33:13;;;;;;;34.78;17.15;;;;;;;6.18;55.36;99145.06;1745304;81;21311;-73
2021/05/07 01:35:45;;;;;;;29.18;14.15;;;;;;;6.20;54.57;99144.96;1720439;83;21370;-72
2021/05/07 01:38:15;;;;;;;27.90;14.03;;;;;;;6.24;54.12;99146.48;1727103;83;21215;-73
2021/05/07 01:40:47;;;;;;;34.70;12.78;;;;;;;6.26;53.88;99144.59;1722534;83;21212;-72
2021/05/07 01:43:15;;;;;;;27.50;12.50;;;;;;;6.28;53.68;99136.60;1708584;83;21671;-72
2021/05/07 01:45:46;;;;;;;25.25;12.73;;;;;;;6.29;53.57;99137.84;1702011;83;21234;-73
2021/05/07 01:48:15;;;;;;;25.92;12.90;;;;;;;6.30;53.62;99143.45;1710671;83;21390;-73
2021/05/07 01:50:47;;;;;;;30.45;15.00;;;;;;;6.32;53.51;99144.20;1706300;83;21384;-73
2021/05/07 01:53:15;;;;;;;40.15;16.93;;;;;;;6.33;53.26;99139.34;1716177;83;21778;-73
2021/05/07 01:55:47;;;;;;;43.35;18.62;;;;;;;6.35;53.12;99147.11;1709072;83;21187;-73
2021/05/07 01:58:28;;;;;;;40.52;17.95;;;;;;;6.39;52.99;99150.77;1779640;79;22925;-72
2021/05/07 02:00:57;;;;;;;34.38;16.17;;;;;;;6.33;53.07;99151.16;1753077;82;21174;-73
2021/05/07 02:03:26;;;;;;;23.85;11.88;;;;;;;6.32;53.13;99149.94;1753052;82;21127;-73
2021/05/07 02:05:55;;;;;;;19.25;10.28;;;;;;;6.31;52.97;99155.64;1737784;81;21710;-73
2021/05/07 02:08:23;;;;;;;17.92;8.85;;;;;;;6.32;52.73;99161.28;1723143;83;21183;-72
2021/05/07 02:10:52;;;;;;;16.75;8.23;;;;;;;6.36;52.65;99161.94;1722121;83;21167;-72
2021/05/07 02:13:19;;;;;;;18.95;8.93;;;;;;;6.42;52.55;99162.01;1744673;82;21273;-73
2021/05/07 02:15:49;;;;;;;32.28;12.78;;;;;;;6.50;52.05;99162.39;1753071;82;21138;-73
2021/05/07 02:18:18;;;;;;;35.92;13.15;;;;;;;6.54;51.67;99159.45;1752992;82;21328;-73
2021/05/07 02:20:48;;;;;;;29.95;13.15;;;;;;;6.62;51.46;99162.91;1752928;82;21302;-72
2021/05/07 02:23:17;;;;;;;37.40;13.65;;;;;;;6.70;51.47;99159.34;1748557;81;21179;-72
2021/05/07 02:25:45;;;;;;;42.23;13.25;;;;;;;6.80;51.19;99162.20;1727346;82;21182;-72
2021/05/07 02:28:14;;;;;;;42.20;15.08;;;;;;;6.89;50.94;99163.40;1722892;83;21300;-73
2021/05/07 02:30:41;;;;;;;42.55;14.63;;;;;;;6.99;50.82;99161.03;1723238;83;21210;-73
2021/05/07 02:33:09;;;;;;;43.48;14.68;;;;;;;7.05;50.55;99150.95;1723277;83;21309;-73
2021/05/07 02:35:37;;;;;;;43.78;13.95;;;;;;;7.15;50.34;99150.37;1725433;82;21174;-73
2021/05/07 02:38:05;;;;;;;19.52;8.20;;;;;;;7.25;50.12;99155.39;1722973;83;21191;-73
2021/05/07 02:40:34;;;;;;;11.20;5.85;;;;;;;7.30;49.86;99154.61;1722989;83;21158;-73
2021/05/07 02:43:01;;;;;;;8.13;4.58;;;;;;;7.37;49.85;99158.50;1733562;82;21156;-73
2021/05/07 02:45:30;;;;;;;6.75;4.45;;;;;;;7.43;49.88;99149.83;1728392;81;21096;-73
2021/05/07 02:47:57;;;;;;;6.28;3.90;;;;;;;7.46;49.86;99144.38;1723302;82;21240;-73
2021/05/07 02:50:25;;;;;;;5.87;4.08;;;;;;;7.49;49.48;99152.05;1723111;83;21636;-73
2021/05/07 02:52:53;;;;;;;5.97;3.90;;;;;;;7.51;49.41;99148.86;1734014;82;21158;-73
2021/05/07 02:55:20;;;;;;;7.20;4.28;;;;;;;7.54;49.29;99144.23;1723859;82;21138;-73
2021/05/07 02:57:48;;;;;;;6.33;4.08;;;;;;;7.59;49.22;99147.85;1745096;82;21703;-73
2021/05/07 03:00:19;;;;;;;9.83;4.55;;;;;;;7.65;49.16;99154.02;1739959;82;21612;-73
2021/05/07 03:02:46;;;;;;;7.53;4.12;;;;;;;7.74;49.26;99147.29;1730816;82;21136;-73
2021/05/07 03:05:14;;;;;;;9.48;4.50;;;;;;;7.85;49.22;99158.39;1723956;82;21151;-73
2021/05/07 03:07:42;;;;;;;12.85;4.62;;;;;;;7.98;49.07;99158.39;1739698;82;21751;-73
2021/05/07 03:10:11;;;;;;;8.70;4.62;;;;;;;8.07;49.00;99162.17;1739172;82;21192;-73
2021/05/07 03:12:40;;;;;;;7.10;3.83;;;;;;;8.15;48.80;99150.65;1737978;82;21576;-73
2021/05/07 03:15:09;;;;;;;9.25;4.60;;;;;;;8.22;48.63;99155.84;1739238;82;21160;-73
2021/05/07 03:17:38;;;;;;;5.62;3.85;;;;;;;8.28;48.43;99168.58;1739090;82;21321;-73
2021/05/07 03:20:07;;;;;;;5.72;4.00;;;;;;;8.49;48.16;99164.95;1739494;82;21175;-73
2021/05/07 03:22:34;;;;;;;7.50;4.00;;;;;;;8.95;47.41;99156.84;1738624;82;22122;-73
2021/05/07 03:25:02;;;;;;;8.23;3.87;;;;;;;9.41;46.42;99160.52;1739391;82;21317;-73
2021/05/07 03:27:29;;;;;;;6.45;3.85;;;;;;;9.53;45.86;99160.06;1737197;82;21147;-73
2021/05/07 03:29:58;;;;;;;6.28;3.65;;;;;;;9.42;45.90;99157.38;1739244;82;21148;-73
2021/05/07 03:32:25;;;;;;;6.60;4.10;;;;;;;9.29;46.12;99164.88;1739074;82;21148;-73
2021/05/07 03:34:54;;;;;;;7.62;3.77;;;;;;;9.52;46.00;99176.84;1718721;82;21278;-74
2021/05/07 03:37:21;;;;;;;5.65;3.83;;;;;;;10.03;45.12;99174.80;1732030;82;21184;-74
2021/05/07 03:39:49;;;;;;;5.12;3.42;;;;;;;10.59;44.65;99177.45;1720404;82;21171;-74
2021/05/07 03:42:18;;;;;;;9.58;3.72;;;;;;;11.22;44.00;99170.20;1709744;83;21624;-73
2021/05/07 03:44:46;;;;;;;6.60;4.05;;;;;;;11.72;43.32;99169.59;1689896;84;21199;-74
2021/05/07 03:47:13;;;;;;;12.37;4.75;;;;;;;11.83;42.84;99172.67;1709787;84;21183;-73
2021/05/07 03:49:41;;;;;;;7.65;3.52;;;;;;;11.67;42.68;99167.81;1710073;82;21195;-73
2021/05/07 03:52:08;;;;;;;6.50;3.70;;;;;;;11.51;42.48;99169.60;1709707;84;21318;-74
2021/05/07 03:54:36;;;;;;;7.83;4.22;;;;;;;11.40;42.93;99165.68;1714310;82;21623;-74
2021/05/07 03:57:05;;;;;;;9.33;4.05;;;;;;;11.40;42.99;99163.03;1735263;81;21284;-74
2021/05/07 03:59:32;;;;;;;7.00;3.25;;;;;;;11.50;43.64;99166.59;1732213;82;21127;-74
2021/05/07 04:01:59;;;;;;;8.35;2.70;;;;;;;11.76;42.75;99166.20;1735993;82;21592;-74
2021/05/07 04:04:26;;;;;;;6.53;3.00;;;;;;;11.83;42.43;99171.81;1728794;82;21147;-74
2021/05/07 04:06:53;;;;;;;4.60;2.50;;;;;;;11.83;41.89;99170.02;1728720;82;21186;-74
2021/05/07 04:09:30;;;;;;;9.88;2.95;;;;;;;11.71;42.18;99175.02;1733794;82;21750;-73
2021/05/07 04:11:55;;;;;;;8.73;2.90;;;;;;;11.59;42.30;99171.61;1724930;82;21139;-73
2021/05/07 04:14:20;;;;;;;7.20;2.77;;;;;;;11.70;42.38;99179.95;1730700;82;21706;-72
2021/05/07 04:16:48;;;;;;;4.90;2.70;;;;;;;12.19;41.75;99178.47;1727635;81;21210;-73
2021/05/07 04:19:16;;;;;;;11.05;4.67;;;;;;;12.84;40.98;99169.31;1727008;82;21139;-73
2021/05/07 04:21:44;;;;;;;7.05;4.75;;;;;;;13.35;39.74;99172.24;1739123;82;21124;-73
2021/05/07 04:24:11;;;;;;;5.80;3.10;;;;;;;13.64;39.53;99178.55;1733386;82;21616;-74
2021/05/07 04:26:40;;;;;;;5.05;2.75;;;;;;;13.54;39.52;99175.41;1726884;82;21155;-73
2021/05/07 04:29:08;;;;;;;5.90;2.75;;;;;;;13.36;39.72;99177.91;1730615;81;21195;-72
2021/05/07 04:31:36;;;;;;;11.03;3.50;;;;;;;13.22;40.02;99178.30;1730595;82;21278;-73
2021/05/07 04:34:06;;;;;;;5.75;3.05;;;;;;;13.03;40.45;99175.14;1730506;82;21198;-73
2021/05/07 04:36:33;;;;;;;7.95;3.50;;;;;;;12.85;40.30;99171.85;1738274;82;21543;-73
2021/05/07 04:39:01;;;;;;;4.05;2.83;;;;;;;12.71;40.01;99171.75;1720134;82;21585;-73
2021/05/07 04:41:28;;;;;;;5.97;2.95;;;;;;;12.79;40.55;99175.05;1736770;82;21298;-73
2021/05/07 04:43:57;;;;;;;6.03;3.12;;;;;;;12.93;40.65;99175.15;1745131;82;21388;-74
2021/05/07 04:46:24;;;;;;;6.87;3.83;;;;;;;13.00;40.36;99169.62;1742021;81;21537;-74
2021/05/07 04:48:51;;;;;;;25.43;9.93;;;;;;;12.99;40.17;99173.75;1742330;82;21293;-73
2021/05/07 04:51:18;;;;;;;9.40;3.40;;;;;;;12.89;39.70;99170.59;1735831;82;21313;-74
2021/05/07 04:53:45;;;;;;;7.03;3.40;;;;;;;12.81;39.66;99170.42;1727047;82;21592;-73
2021/05/07 04:56:12;;;;;;;6.95;3.20;;;;;;;13.03;40.40;99165.38;1730019;82;21265;-73
2021/05/07 04:58:41;;;;;;;10.30;3.70;;;;;;;13.03;40.40;99165.38;1727851;82;21155;-74
2021/05/07 05:01:08;;;;;;;6.00;3.70;;;;;;;13.72;39.04;99165.37;1721714;82;21148;-73
2021/05/07 05:03:35;;;;;;;6.83;3.83;;;;;;;14.37;38.14;99153.98;1726380;82;21163;-73
2021/05/07 05:06:03;;;;;;;10.68;3.95;;;;;;;14.68;37.49;99161.69;1711670;82;22078;-74
2021/05/07 05:08:31;;;;;;;6.12;3.70;;;;;;;14.61;37.09;99161.42;1718069;82;21164;-74
2021/05/07 05:11:00;;;;;;;20.30;4.17;;;;;;;14.61;37.09;99161.42;1736038;82;21168;-74
2021/05/07 05:13:27;;;;;;;14.60;4.17;;;;;;;14.63;37.66;99165.26;1674072;85;21632;-74
2021/05/07 05:15:56;;;;;;;11.00;3.90;;;;;;;14.86;37.88;99165.23;1722051;82;21147;-77
2021/05/07 05:18:29;;;;;;;7.83;3.40;;;;;;;15.36;38.18;99169.21;1728128;82;21143;-75
2021/05/07 05:20:59;;;;;;;7.12;3.27;;;;;;;15.91;36.16;99168.66;1738681;82;21192;-75
2021/05/07 05:23:27;;;;;;;7.42;3.27;;;;;;;16.18;34.92;99156.98;1739238;82;21132;-75
2021/05/07 05:25:54;;;;;;;6.85;3.22;;;;;;;16.34;35.28;99157.58;1717895;82;21123;-75
2021/05/07 05:28:22;;;;;;;11.45;3.40;;;;;;;16.57;34.37;99157.48;1711603;82;21588;-75
2021/05/07 05:30:49;;;;;;;5.62;3.02;;;;;;;16.84;34.30;99155.05;1709868;84;21200;-76
2021/05/07 05:33:16;;;;;;;6.50;3.52;;;;;;;17.13;33.95;99153.82;1715365;82;21135;-76
2021/05/07 05:35:45;;;;;;;64.60;6.78;;;;;;;17.37;33.81;99157.02;1715985;82;21147;-76
2021/05/07 05:38:13;;;;;;;6.95;3.12;;;;;;;17.52;33.60;99154.01;1736096;82;21132;-76
2021/05/07 05:40:42;;;;;;;18.27;3.60;;;;;;;17.60;32.15;99149.16;1711467;82;21614;-76
2021/05/07 05:43:09;;;;;;;19.45;3.77;;;;;;;17.55;32.98;99146.67;1708991;82;21345;-76
2021/05/07 05:45:37;;;;;;;7.97;3.00;;;;;;;17.50;31.97;99151.99;1709319;83;21171;-76
2021/05/07 05:48:13;;;;;;;5.67;2.80;;;;;;;17.39;32.16;99141.63;1722364;82;21140;-76
2021/05/07 05:50:46;;;;;;;29.95;4.20;;;;;;;17.20;32.35;99142.82;1738947;82;21156;-76
2021/05/07 05:53:13;;;;;;;7.80;3.20;;;;;;;16.99;33.59;99155.30;1739171;82;21171;-75
2021/05/07 05:55:41;;;;;;;7.05;3.12;;;;;;;16.85;33.41;99145.58;1738922;82;21187;-75
2021/05/07 05:58:08;;;;;;;4.72;3.30;;;;;;;16.74;33.63;99153.88;1741269;81;21631;-75
2021/05/07 06:00:36;;;;;;;9.55;3.30;;;;;;;16.70;33.53;99152.52;1741709;82;21187;-75
2021/05/07 06:03:04;;;;;;;9.85;3.40;;;;;;;16.71;33.80;99154.19;1717652;82;21171;-75
2021/05/07 06:05:32;;;;;;;6.60;3.10;;;;;;;16.78;34.47;99156.56;1717528;83;21167;-75
2021/05/07 06:08:00;;;;;;;19.95;3.40;;;;;;;16.89;33.61;99146.05;1721168;82;21289;-74
2021/05/07 06:10:27;;;;;;;7.95;3.12;;;;;;;16.93;32.78;99151.94;1737498;82;21135;-73
2021/05/07 06:12:56;;;;;;;10.82;3.52;;;;;;;16.91;33.28;99151.29;1747451;82;21309;-75
2021/05/07 06:15:24;;;;;;;9.53;3.15;;;;;;;16.93;33.13;99158.62;1746045;82;21171;-74
2021/05/07 06:17:52;;;;;;;5.55;2.92;;;;;;;16.94;32.53;99150.44;1717591;82;21210;-75
2021/05/07 06:20:19;;;;;;;7.83;3.37;;;;;;;16.91;33.14;99152.11;1717340;83;21353;-75
2021/05/07 06:22:48;;;;;;;4.70;2.87;;;;;;;16.94;32.91;99149.10;1731763;82;21143;-75
2021/05/07 06:25:18;;;;;;;5.10;2.92;;;;;;;17.02;31.91;99153.63;1717593;83;21183;-75
2021/05/07 06:27:45;;;;;;;7.85;3.33;;;;;;;17.09;31.90;99146.63;1717559;83;21191;-75
2021/05/07 06:30:14;;;;;;;3.70;2.27;;;;;;;17.18;31.19;99152.31;1717555;83;21183;-75
2021/05/07 06:32:41;;;;;;;2.90;2.22;;;;;;;17.12;30.39;99143.65;1717595;83;21305;-74
2021/05/07 06:35:10;;;;;;;4.58;3.10;;;;;;;17.01;31.28;99137.28;1717442;83;21187;-74
2021/05/07 06:37:40;;;;;;;5.50;2.60;;;;;;;16.97;32.08;99141.26;1716914;83;21325;-74
2021/05/07 06:40:08;;;;;;;21.12;3.83;;;;;;;16.97;31.80;99155.95;1717555;83;21139;-74
2021/05/07 06:42:38;;;;;;;7.35;2.50;;;;;;;16.97;31.50;99153.28;1717643;83;21572;-74
2021/05/07 06:45:07;;;;;;;6.03;2.80;;;;;;;17.00;31.79;99144.95;1717917;83;21639;-74
2021/05/07 06:47:34;;;;;;;5.20;2.80;;;;;;;16.97;32.12;99141.26;1719684;82;21143;-74
2021/05/07 06:50:03;;;;;;;5.20;2.50;;;;;;;16.92;32.40;99144.92;1730886;82;21297;-74
2021/05/07 06:52:32;;;;;;;6.97;2.40;;;;;;;16.92;31.88;99147.59;1747307;81;21175;-74
2021/05/07 06:55:00;;;;;;;3.60;2.25;;;;;;;16.91;32.38;99141.94;1736509;82;21350;-75
2021/05/07 06:57:27;;;;;;;9.10;2.85;;;;;;;16.86;32.56;99142.39;1729546;82;21617;-74
2021/05/07 06:59:55;;;;;;;34.85;4.62;;;;;;;16.88;33.22;99135.06;1723113;83;21227;-74
2021/05/07 07:02:22;;;;;;;5.65;2.52;;;;;;;16.92;32.89;99129.75;1735886;82;21615;-74
2021/05/07 07:04:50;;;;;;;7.40;2.70;;;;;;;16.92;31.98;99136.91;1753180;82;21571;-74
2021/05/07 07:07:18;;;;;;;4.15;2.20;;;;;;;16.83;32.69;99136.88;1753129;82;21159;-73
2021/05/07 07:09:46;;;;;;;5.17;2.45;;;;;;;16.73;32.61;99135.33;1753074;82;21163;-74
2021/05/07 07:12:13;;;;;;;17.17;4.00;;;;;;;16.62;32.79;99134.64;1748889;82;21569;-74
2021/05/07 07:14:42;;;;;;;3.87;2.10;;;;;;;16.55;33.46;99130.45;1724971;82;21278;-74
2021/05/07 07:17:09;;;;;;;3.95;2.58;;;;;;;16.53;33.74;99135.14;1723498;83;21208;-74
2021/05/07 07:19:37;;;;;;;6.10;2.92;;;;;;;16.54;33.19;99127.44;1723391;83;21259;-74
2021/05/07 07:22:06;;;;;;;5.83;2.42;;;;;;;16.59;33.50;99134.16;1725834;82;21123;-74
2021/05/07 07:24:33;;;;;;;3.35;2.30;;;;;;;16.62;33.79;99131.14;1734755;82;21289;-74
2021/05/07 07:27:01;;;;;;;3.17;2.10;;;;;;;16.62;33.62;99125.80;1743000;82;21174;-74
2021/05/07 07:29:28;;;;;;;5.00;2.58;;;;;;;16.62;33.79;99134.64;1743354;82;21564;-76
2021/05/07 07:31:55;;;;;;;6.72;2.60;;;;;;;16.65;34.33;99124.13;1745849;82;21139;-74
2021/05/07 07:34:23;;;;;;;4.87;2.35;;;;;;;16.71;34.30;99127.02;1746729;82;21186;-72
2021/05/07 07:36:50;;;;;;;4.72;2.67;;;;;;;16.77;34.07;99118.01;1723339;83;21564;-75
2021/05/07 07:39:19;;;;;;;8.48;3.25;;;;;;;16.79;33.80;99113.33;1734124;82;21163;-77
2021/05/07 07:41:49;;;;;;;3.58;2.17;;;;;;;16.84;33.87;99111.00;1750053;82;21147;-75
2021/05/07 07:44:18;;;;;;;10.68;2.62;;;;;;;16.87;33.53;99106.17;1750831;82;21294;-74
2021/05/07 07:46:45;;;;;;;4.65;2.30;;;;;;;16.86;33.75;99115.17;1753013;82;21182;-75
2021/05/07 07:49:15;;;;;;;6.12;2.20;;;;;;;16.81;33.74;99106.81;1748882;81;21151;-75
2021/05/07 07:51:43;;;;;;;9.85;3.30;;;;;;;16.76;33.76;99091.80;1750204;82;21179;-75
2021/05/07 07:54:12;;;;;;;8.63;2.70;;;;;;;16.64;33.97;99101.95;1753127;81;21186;-75
2021/05/07 07:56:40;;;;;;;4.62;2.20;;;;;;;16.65;34.26;99108.97;1752881;81;21198;-75
2021/05/07 07:59:08;;;;;;;5.17;2.77;;;;;;;16.62;34.13;99119.95;1747178;81;21143;-74
2021/05/07 08:01:36;;;;;;;4.83;2.92;;;;;;;16.60;34.65;99115.30;1752794;82;21194;-74
2021/05/07 08:04:04;;;;;;;4.65;2.30;;;;;;;16.59;34.88;99111.46;1730744;82;21167;-74
2021/05/07 08:06:32;;;;;;;23.50;3.47;;;;;;;16.60;34.78;99107.77;1747798;82;21134;-74
2021/05/07 08:09:00;;;;;;;6.55;2.40;;;;;;;16.61;34.42;99106.78;1737522;82;21186;-74
2021/05/07 08:11:28;;;;;;;4.25;2.15;;;;;;;16.63;34.92;99104.80;1723014;83;21194;-75
2021/05/07 08:13:56;;;;;;;3.62;2.10;;;;;;;16.63;34.40;99106.12;1723188;83;21166;-74
2021/05/07 08:16:25;;;;;;;54.83;5.75;;;;;;;16.62;34.83;99107.13;1725165;82;21297;-76
2021/05/07 08:20:16;;;;;;;12.47;2.95;;;;;;;16.63;34.10;99108.80;1893131;76;22771;-77
2021/05/07 08:22:44;;;;;;;3.92;2.10;;;;;;;16.54;33.89;99113.27;1859952;77;21571;-74
2021/05/07 08:25:12;;;;;;;9.28;2.80;;;;;;;16.51;33.84;99098.92;1849439;77;21285;-73
2021/05/07 08:27:41;;;;;;;6.30;2.52;;;;;;;16.49;34.01;99096.39;1851215;77;21127;-73
2021/05/07 08:30:12;;;;;;;6.62;3.22;;;;;;;16.45;34.42;99105.73;1851937;77;21566;-73
2021/05/07 08:32:40;;;;;;;6.60;2.00;;;;;;;16.41;34.66;99105.73;1842061;77;21288;-73
2021/05/07 08:35:09;;;;;;;4.00;2.37;;;;;;;16.36;34.81;99100.03;1859550;77;21118;-75
2021/05/07 08:37:42;;;;;;;20.65;2.60;;;;;;;16.35;35.00;99113.03;1859691;77;21429;-75
2021/05/07 08:40:08;;;;;;;6.40;1.90;;;;;;;16.36;34.98;99100.03;1849862;77;21281;-75
2021/05/07 08:42:36;;;;;;;4.55;2.15;;;;;;;16.37;35.13;99099.05;1852713;77;21155;-75
2021/05/07 08:45:05;;;;;;;4.62;2.20;;;;;;;16.36;34.62;99094.70;1857481;77;21114;-74
2021/05/07 08:47:34;;;;;;;4.17;2.20;;;;;;;16.37;34.96;99088.38;1862250;77;21570;-74
2021/05/07 08:50:05;;;;;;;17.57;2.98;;;;;;;16.36;34.84;99084.84;1854837;77;21733;-74
2021/05/07 08:55:17;;;;;;;36.58;7.22;;;;;;;16.35;34.92;99090.36;1927368;73;22106;-75
2021/05/07 08:57:44;;;;;;;7.50;3.37;;;;;;;16.30;35.25;99091.34;1899241;75;21664;-75
2021/05/07 09:00:14;;;;;;;7.60;2.60;;;;;;;16.29;35.22;99089.19;1833641;78;21301;-74
2021/05/07 09:02:41;;;;;;;5.67;3.02;;;;;;;16.30;35.62;99084.16;1829470;78;21155;-74
2021/05/07 09:05:09;;;;;;;8.93;2.60;;;;;;;16.39;35.55;99078.36;1851736;77;21297;-74
2021/05/07 09:07:37;;;;;;;7.67;2.50;;;;;;;16.51;35.73;99074.91;1878335;76;21124;-74
2021/05/07 09:10:06;;;;;;;4.72;2.20;;;;;;;16.66;36.03;99075.09;1849427;76;21075;-74
2021/05/07 09:12:38;;;;;;;5.87;2.20;;;;;;;16.81;35.69;99070.77;1853574;76;21578;-74
2021/05/07 09:15:12;;;;;;;8.63;2.47;;;;;;;16.96;35.33;99063.49;1820065;78;21139;-74
2021/05/07 09:17:39;;;;;;;8.63;2.30;;;;;;;17.08;35.14;99064.81;1805392;78;21557;-74
2021/05/07 09:20:13;;;;;;;3.65;2.12;;;;;;;17.19;34.98;99052.46;1865894;77;21286;-74
2021/05/07 09:22:42;;;;;;;8.28;2.30;;;;;;;17.31;35.73;99055.61;1809370;78;21696;-74
2021/05/07 09:25:17;;;;;;;12.15;2.58;;;;;;;17.40;35.65;99056.44;1774791;79;21164;-74
2021/05/07 09:27:45;;;;;;;5.95;2.27;;;;;;;17.45;35.70;99044.74;1775419;81;21264;-82
2021/05/07 09:30:24;;;;;;;5.40;2.25;;;;;;;17.58;35.36;99049.56;1778259;79;21641;-78
2021/05/07 09:32:53;;;;;;;7.40;2.27;;;;;;;17.67;34.97;99047.22;1775039;79;21204;-78
2021/05/07 09:35:30;;;;;;;5.90;2.52;;;;;;;17.72;34.67;99038.67;1786646;79;21217;-79
2021/05/07 09:38:00;;;;;;;5.80;2.12;;;;;;;17.76;34.76;99029.32;1806046;79;21168;-79
2021/05/07 09:40:27;;;;;;;2.67;2.00;;;;;;;17.72;35.23;98998.56;1803071;79;21148;-78
2021/05/07 09:43:17;;;;;;;7.83;1.98;;;;;;;17.65;34.64;99014.98;1802236;79;21151;-78
2021/05/07 09:45:50;;;;;;;3.60;1.75;;;;;;;17.56;34.98;99005.29;1804192;79;21564;-78
2021/05/07 09:48:22;;;;;;;4.50;1.90;;;;;;;17.51;35.89;99011.99;1801165;79;21128;-80
2021/05/07 09:50:53;;;;;;;5.25;3.25;;;;;;;17.52;35.69;99001.63;1805766;79;21175;-79
2021/05/07 09:53:22;;;;;;;8.25;4.28;;;;;;;17.54;35.65;99001.45;1783412;79;21106;-80
2021/05/07 09:55:54;;;;;;;3.37;1.87;;;;;;;17.53;35.44;98986.42;1847598;76;21124;-79
2021/05/07 09:58:22;;;;;;;5.53;1.93;;;;;;;17.55;34.77;98986.27;1831444;78;21171;-78
2021/05/07 10:00:49;;;;;;;4.62;1.85;;;;;;;17.45;35.03;98989.95;1867327;76;21351;-78
2021/05/07 10:03:16;;;;;;;3.72;2.00;;;;;;;17.33;34.39;98985.99;1826359;78;21100;-78
2021/05/07 10:05:43;;;;;;;6.30;2.33;;;;;;;17.23;35.20;98986.68;1835862;77;21608;-78
2021/05/07 10:08:13;;;;;;;2.90;2.10;;;;;;;17.25;35.26;98984.66;1835404;77;21183;-78
2021/05/07 10:10:42;;;;;;;6.22;2.40;;;;;;;17.28;34.86;98987.00;1838117;77;21149;-80
2021/05/07 10:13:16;;;;;;;3.42;2.22;;;;;;;17.28;34.61;98979.80;1835664;77;21082;-77
2021/05/07 10:15:43;;;;;;;7.22;2.08;;;;;;;17.28;34.32;98981.66;1836426;77;21598;-76
2021/05/07 10:18:24;;;;;;;3.98;2.17;;;;;;;17.24;34.48;98982.98;1865684;76;21172;-76
2021/05/07 10:21:02;;;;;;;3.40;2.00;;;;;;;17.21;34.65;98980.14;1804817;78;21109;-76
2021/05/07 10:23:30;;;;;;;25.55;3.65;;;;;;;17.23;34.86;98974.66;1856725;77;21128;-76
2021/05/07 10:26:01;;;;;;;4.28;2.15;;;;;;;17.26;35.33;98974.30;1848074;77;21150;-76
2021/05/07 10:28:46;;;;;;;5.92;2.17;;;;;;;17.30;34.66;98972.95;1806933;78;21705;-75
2021/05/07 10:31:15;;;;;;;;;;;;;;;17.26;33.40;98960.94;1836493;77;21122;-77
2021/05/07 10:34:00;;;;;;;6.40;2.70;;;;;;;17.20;33.59;98955.28;1832752;78;20183;-77
2021/05/07 10:36:41;;;;;;;11.35;2.70;;;;;;;17.12;33.29;98952.64;1830281;78;21290;-77
2021/05/07 10:39:22;;;;;;;5.78;2.77;;;;;;;17.11;33.55;98944.77;1834756;77;21265;-77
2021/05/07 10:41:51;;;;;;;7.20;2.58;;;;;;;17.14;33.89;98948.45;1832942;77;21560;-77
2021/05/07 10:44:20;;;;;;;4.50;2.05;;;;;;;17.15;33.65;98932.77;1832679;78;21119;-77
2021/05/07 10:47:06;;;;;;;5.10;2.10;;;;;;;17.23;33.55;98918.03;1832573;78;21564;-77
2021/05/07 10:49:41;;;;;;;3.92;2.08;;;;;;;17.28;33.29;98918.86;1837901;77;21088;-77
2021/05/07 10:52:10;;;;;;;4.83;2.25;;;;;;;17.37;33.80;98917.83;1836863;77;21159;-77
2021/05/07 10:54:48;;;;;;;7.05;2.20;;;;;;;17.47;33.59;98904.27;1831099;78;21174;-77
2021/05/07 10:57:21;;;;;;;3.17;2.20;;;;;;;17.58;32.97;98901.70;1830159;78;21140;-77
2021/05/07 11:00:03;;;;;;;6.47;2.22;;;;;;;17.67;33.63;98892.62;1830216;78;21270;-78
2021/05/07 11:02:48;;;;;;;6.58;2.52;;;;;;;17.75;33.38;98889.08;1830846;78;21147;-77
2021/05/07 11:05:48;;;;;;;5.03;2.17;;;;;;;17.80;33.78;98903.61;1830849;78;21152;-77
2021/05/07 11:08:15;;;;;;;6.65;2.30;;;;;;;17.91;33.28;98896.19;1833293;77;21172;-76
2021/05/07 11:10:49;;;;;;;3.47;2.05;;;;;;;18.00;33.42;98876.43;1830448;78;21120;-77
2021/05/07 11:13:17;;;;;;;8.48;2.70;;;;;;;18.06;33.36;98874.91;1831624;77;21132;-76
2021/05/07 11:15:55;;;;;;;5.62;2.05;;;;;;;18.11;33.57;98885.39;1822618;79;21116;-76
2021/05/07 11:18:31;;;;;;;3.35;2.08;;;;;;;18.14;33.45;98875.66;1837284;77;21139;-76
2021/05/07 11:21:14;;;;;;;8.38;2.30;;;;;;;18.18;33.81;98870.78;1830695;78;21132;-77
2021/05/07 11:23:45;;;;;;;7.35;2.52;;;;;;;18.25;33.75;98877.09;1831165;77;21144;-77
2021/05/07 11:26:16;;;;;;;11.93;3.02;;;;;;;18.31;33.78;98875.53;1857931;77;21147;-76
2021/05/07 11:28:44;;;;;;;8.53;2.42;;;;;;;18.32;33.97;98866.50;1822925;79;21116;-77
2021/05/07 11:31:13;;;;;;;6.05;2.35;;;;;;;18.32;34.19;98855.79;1799986;80;21203;-77
2021/05/07 11:33:43;;;;;;;16.42;3.02;;;;;;;18.31;34.05;98851.44;1849296;76;21128;-77
2021/05/07 11:36:13;;;;;;;4.58;2.20;;;;;;;18.30;34.48;98853.78;1841278;77;21506;-77
2021/05/07 11:38:41;;;;;;;7.55;2.90;;;;;;;18.28;35.13;98835.76;1852760;77;21560;-76
2021/05/07 11:41:24;;;;;;;6.83;3.42;;;;;;;18.33;35.20;98833.38;1837208;77;21706;-77
2021/05/07 11:43:51;;;;;;;7.10;2.35;;;;;;;18.37;34.88;98836.52;1829641;78;21285;-77
2021/05/07 11:46:19;;;;;;;10.35;2.27;;;;;;;18.37;34.90;98825.30;1850171;77;21430;-76
2021/05/07 11:48:50;;;;;;;9.58;2.60;;;;;;;18.36;35.69;98816.94;1847947;77;21120;-76